sensor_id;sensor_type;location;lat;lon;timestamp;pressure;altitude;pressure_sealevel;temperature;humidity
76858;BME280;65830;0.000;0.000;2023-07-09T00:00:20;99895.47;;;22.60;52.14
76858;BME280;65830;0.000;0.000;2023-07-09T00:02:46;99903.00;;;22.52;52.51
76858;BME280;65830;0.000;0.000;2023-07-09T00:05:12;99898.81;;;22.49;52.27
76858;BME280;65830;0.000;0.000;2023-07-09T00:07:39;99898.63;;;22.44;52.36
76858;BME280;65830;0.000;0.000;2023-07-09T00:10:08;99902.56;;;22.41;52.26
76858;BME280;65830;0.000;0.000;2023-07-09T00:12:37;99901.78;;;22.34;52.30
76858;BME280;65830;0.000;0.000;2023-07-09T00:15:03;99913.19;;;22.30;52.44
76858;BME280;65830;0.000;0.000;2023-07-09T00:17:34;99914.44;;;22.27;52.43
76858;BME280;65830;0.000;0.000;2023-07-09T00:19:59;99909.25;;;22.26;52.36
76858;BME280;65830;0.000;0.000;2023-07-09T00:22:25;99918.22;;;22.26;52.08
76858;BME280;65830;0.000;0.000;2023-07-09T00:24:52;99921.50;;;22.21;52.07
76858;BME280;65830;0.000;0.000;2023-07-09T00:27:23;99914.63;;;22.19;52.32
76858;BME280;65830;0.000;0.000;2023-07-09T00:29:50;99910.06;;;22.19;52.12
76858;BME280;65830;0.000;0.000;2023-07-09T00:32:18;99894.88;;;22.12;51.99
76858;BME280;65830;0.000;0.000;2023-07-09T00:34:48;99903.84;;;22.12;52.04
76858;BME280;65830;0.000;0.000;2023-07-09T00:37:15;99912.56;;;22.14;52.20
76858;BME280;65830;0.000;0.000;2023-07-09T00:39:43;99912.97;;;22.11;51.97
76858;BME280;65830;0.000;0.000;2023-07-09T00:42:20;99914.22;;;22.15;51.62
76858;BME280;65830;0.000;0.000;2023-07-09T00:44:50;99914.22;;;22.15;51.43
76858;BME280;65830;0.000;0.000;2023-07-09T00:47:23;99917.34;;;22.06;51.26
76858;BME280;65830;0.000;0.000;2023-07-09T00:52:37;99905.91;;;22.10;51.42
76858;BME280;65830;0.000;0.000;2023-07-09T00:55:07;99899.06;;;22.14;50.88
76858;BME280;65830;0.000;0.000;2023-07-09T00:57:35;99900.69;;;22.15;50.73
76858;BME280;65830;0.000;0.000;2023-07-09T01:00:05;99906.53;;;22.12;50.62
76858;BME280;65830;0.000;0.000;2023-07-09T01:02:36;99905.28;;;22.15;50.50
76858;BME280;65830;0.000;0.000;2023-07-09T01:05:02;99904.66;;;22.19;50.19
76858;BME280;65830;0.000;0.000;2023-07-09T01:07:30;99903.63;;;22.20;50.05
76858;BME280;65830;0.000;0.000;2023-07-09T01:09:56;99904.47;;;22.14;50.35
76858;BME280;65830;0.000;0.000;2023-07-09T01:12:22;99908.63;;;22.10;50.23
76858;BME280;65830;0.000;0.000;2023-07-09T01:14:48;99903.00;;;22.05;50.15
76858;BME280;65830;0.000;0.000;2023-07-09T01:17:17;99911.72;;;22.07;50.13
76858;BME280;65830;0.000;0.000;2023-07-09T01:19:43;99904.69;;;22.06;50.41
76858;BME280;65830;0.000;0.000;2023-07-09T01:22:10;99908.41;;;22.05;50.49
76858;BME280;65830;0.000;0.000;2023-07-09T01:27:11;99904.03;;;21.97;50.25
76858;BME280;65830;0.000;0.000;2023-07-09T01:29:37;99920.03;;;21.99;50.09
76858;BME280;65830;0.000;0.000;2023-07-09T01:32:03;99912.97;;;21.98;50.05
76858;BME280;65830;0.000;0.000;2023-07-09T01:34:29;99920.69;;;21.94;50.21
76858;BME280;65830;0.000;0.000;2023-07-09T01:36:55;99908.63;;;21.97;50.07
76858;BME280;65830;0.000;0.000;2023-07-09T01:39:21;99909.25;;;21.99;49.88
76858;BME280;65830;0.000;0.000;2023-07-09T01:41:47;99909.63;;;21.96;50.04
76858;BME280;65830;0.000;0.000;2023-07-09T01:44:13;99911.94;;;21.92;50.22
76858;BME280;65830;0.000;0.000;2023-07-09T01:46:41;99906.31;;;21.94;50.22
76858;BME280;65830;0.000;0.000;2023-07-09T01:49:07;99910.69;;;21.95;49.72
76858;BME280;65830;0.000;0.000;2023-07-09T01:51:34;99919.19;;;21.92;50.00
76858;BME280;65830;0.000;0.000;2023-07-09T01:54:01;99924.41;;;21.87;50.02
76858;BME280;65830;0.000;0.000;2023-07-09T01:56:27;99925.84;;;21.96;49.63
76858;BME280;65830;0.000;0.000;2023-07-09T01:58:52;99918.56;;;21.90;49.93
76858;BME280;65830;0.000;0.000;2023-07-09T02:01:19;99925.66;;;21.91;49.89
76858;BME280;65830;0.000;0.000;2023-07-09T02:03:45;99924.59;;;21.92;49.86
76858;BME280;65830;0.000;0.000;2023-07-09T02:06:10;99922.94;;;21.91;49.86
76858;BME280;65830;0.000;0.000;2023-07-09T02:08:37;99925.03;;;21.89;49.96
76858;BME280;65830;0.000;0.000;2023-07-09T02:11:03;99930.84;;;21.86;49.78
76858;BME280;65830;0.000;0.000;2023-07-09T02:13:28;99925.03;;;21.89;49.66
76858;BME280;65830;0.000;0.000;2023-07-09T02:15:54;99927.50;;;21.84;49.36
76858;BME280;65830;0.000;0.000;2023-07-09T02:18:19;99923.78;;;21.85;49.35
76858;BME280;65830;0.000;0.000;2023-07-09T02:20:45;99924.81;;;21.84;49.11
76858;BME280;65830;0.000;0.000;2023-07-09T02:23:11;99932.50;;;21.87;48.87
76858;BME280;65830;0.000;0.000;2023-07-09T02:25:37;99933.53;;;21.86;49.21
76858;BME280;65830;0.000;0.000;2023-07-09T02:28:03;99943.94;;;21.89;49.20
76858;BME280;65830;0.000;0.000;2023-07-09T02:30:28;99939.13;;;21.84;49.36
76858;BME280;65830;0.000;0.000;2023-07-09T02:32:54;99933.72;;;21.84;49.17
76858;BME280;65830;0.000;0.000;2023-07-09T02:35:20;99942.69;;;21.85;48.95
76858;BME280;65830;0.000;0.000;2023-07-09T02:37:45;99946.59;;;21.82;49.24
76858;BME280;65830;0.000;0.000;2023-07-09T02:40:11;99948.06;;;21.78;49.14
76858;BME280;65830;0.000;0.000;2023-07-09T02:42:37;99959.50;;;21.73;49.23
76858;BME280;65830;0.000;0.000;2023-07-09T02:45:03;99947.66;;;21.74;48.78
76858;BME280;65830;0.000;0.000;2023-07-09T02:47:30;99953.25;;;21.73;49.00
76858;BME280;65830;0.000;0.000;2023-07-09T02:49:58;99949.94;;;21.77;48.86
76858;BME280;65830;0.000;0.000;2023-07-09T02:52:23;99957.03;;;21.78;49.07
76858;BME280;65830;0.000;0.000;2023-07-09T02:54:49;99954.94;;;21.80;48.61
76858;BME280;65830;0.000;0.000;2023-07-09T02:57:14;99964.91;;;21.80;49.09
76858;BME280;65830;0.000;0.000;2023-07-09T02:59:40;99964.06;;;21.79;49.13
76858;BME280;65830;0.000;0.000;2023-07-09T03:02:06;99958.03;;;21.77;48.99
76858;BME280;65830;0.000;0.000;2023-07-09T03:04:31;99967.78;;;21.72;49.37
76858;BME280;65830;0.000;0.000;2023-07-09T03:06:57;99970.69;;;21.70;49.05
76858;BME280;65830;0.000;0.000;2023-07-09T03:09:22;99969.66;;;21.71;49.31
76858;BME280;65830;0.000;0.000;2023-07-09T03:11:48;99973.56;;;21.62;49.25
76858;BME280;65830;0.000;0.000;2023-07-09T03:14:14;99976.91;;;21.64;49.38
76858;BME280;65830;0.000;0.000;2023-07-09T03:16:39;99982.31;;;21.64;49.16
76858;BME280;65830;0.000;0.000;2023-07-09T03:19:05;99972.94;;;21.53;49.53
76858;BME280;65830;0.000;0.000;2023-07-09T03:21:31;99981.28;;;21.65;49.36
76858;BME280;65830;0.000;0.000;2023-07-09T03:23:57;99966.53;;;21.61;49.27
76858;BME280;65830;0.000;0.000;2023-07-09T03:26:23;99978.53;;;21.58;49.41
76858;BME280;65830;0.000;0.000;2023-07-09T03:28:48;99985.22;;;21.63;49.16
76858;BME280;65830;0.000;0.000;2023-07-09T03:31:14;99980.22;;;21.59;49.09
76858;BME280;65830;0.000;0.000;2023-07-09T03:33:39;99982.50;;;21.56;49.36
76858;BME280;65830;0.000;0.000;2023-07-09T03:36:05;99975.63;;;21.53;49.13
76858;BME280;65830;0.000;0.000;2023-07-09T03:38:31;99977.50;;;21.53;49.11
76858;BME280;65830;0.000;0.000;2023-07-09T03:40:57;99976.06;;;21.57;49.17
76858;BME280;65830;0.000;0.000;2023-07-09T03:43:23;99978.53;;;21.52;49.18
76858;BME280;65830;0.000;0.000;2023-07-09T03:45:49;99989.53;;;21.50;49.17
76858;BME280;65830;0.000;0.000;2023-07-09T03:48:15;99978.72;;;21.50;49.37
76858;BME280;65830;0.000;0.000;2023-07-09T03:50:41;99985.81;;;21.51;49.13
76858;BME280;65830;0.000;0.000;2023-07-09T03:53:07;99983.53;;;21.55;49.08
76858;BME280;65830;0.000;0.000;2023-07-09T03:55:33;99987.69;;;21.57;49.09
76858;BME280;65830;0.000;0.000;2023-07-09T03:57:58;99991.00;;;21.53;48.86
76858;BME280;65830;0.000;0.000;2023-07-09T04:00:24;99988.94;;;21.61;48.87
76858;BME280;65830;0.000;0.000;2023-07-09T04:02:52;99988.31;;;21.59;48.83
76858;BME280;65830;0.000;0.000;2023-07-09T04:05:18;99997.25;;;21.60;48.96
76858;BME280;65830;0.000;0.000;2023-07-09T04:07:44;99987.06;;;21.62;48.49
76858;BME280;65830;0.000;0.000;2023-07-09T04:10:10;99985.25;;;21.69;48.67
76858;BME280;65830;0.000;0.000;2023-07-09T04:12:36;99984.81;;;21.72;48.74
76858;BME280;65830;0.000;0.000;2023-07-09T04:15:05;99985.03;;;21.77;48.29
76858;BME280;65830;0.000;0.000;2023-07-09T04:17:31;99996.47;;;21.73;48.38
76858;BME280;65830;0.000;0.000;2023-07-09T04:19:56;99993.09;;;21.64;48.38
76858;BME280;65830;0.000;0.000;2023-07-09T04:22:22;100008.72;;;21.69;48.69
76858;BME280;65830;0.000;0.000;2023-07-09T04:24:47;100013.50;;;21.73;48.64
76858;BME280;65830;0.000;0.000;2023-07-09T04:27:13;100006.22;;;21.74;48.72
76858;BME280;65830;0.000;0.000;2023-07-09T04:29:39;100009.78;;;21.74;47.96
76858;BME280;65830;0.000;0.000;2023-07-09T04:32:08;100007.28;;;21.79;48.37
76858;BME280;65830;0.000;0.000;2023-07-09T04:34:36;100021.03;;;21.85;48.24
76858;BME280;65830;0.000;0.000;2023-07-09T04:37:05;100026.22;;;21.93;48.30
76858;BME280;65830;0.000;0.000;2023-07-09T04:39:31;100017.31;;;21.99;47.96
76858;BME280;65830;0.000;0.000;2023-07-09T04:41:56;100020.25;;;22.04;47.96
76858;BME280;65830;0.000;0.000;2023-07-09T04:44:22;100013.78;;;22.05;47.59
76858;BME280;65830;0.000;0.000;2023-07-09T04:46:48;100021.88;;;22.12;47.60
76858;BME280;65830;0.000;0.000;2023-07-09T04:49:14;100020.25;;;22.17;47.61
76858;BME280;65830;0.000;0.000;2023-07-09T04:51:40;100013.84;;;22.25;47.34
76858;BME280;65830;0.000;0.000;2023-07-09T04:54:05;100025.06;;;22.29;46.90
76858;BME280;65830;0.000;0.000;2023-07-09T04:56:31;100022.59;;;22.40;46.88
76858;BME280;65830;0.000;0.000;2023-07-09T04:58:56;100019.25;;;22.45;46.80
76858;BME280;65830;0.000;0.000;2023-07-09T05:01:22;100020.72;;;22.48;47.00
76858;BME280;65830;0.000;0.000;2023-07-09T05:03:48;100020.28;;;22.57;47.15
76858;BME280;65830;0.000;0.000;2023-07-09T05:06:13;100021.75;;;22.53;46.42
76858;BME280;65830;0.000;0.000;2023-07-09T05:08:39;100022.78;;;22.52;46.03
76858;BME280;65830;0.000;0.000;2023-07-09T05:11:04;100022.38;;;22.55;45.98
76858;BME280;65830;0.000;0.000;2023-07-09T05:13:30;100023.41;;;22.54;46.01
76858;BME280;65830;0.000;0.000;2023-07-09T05:15:55;100035.28;;;22.60;46.31
76858;BME280;65830;0.000;0.000;2023-07-09T05:18:20;100024.03;;;22.63;46.10
76858;BME280;65830;0.000;0.000;2023-07-09T05:20:47;100035.25;;;22.67;45.98
76858;BME280;65830;0.000;0.000;2023-07-09T05:23:12;100019.03;;;22.73;45.82
76858;BME280;65830;0.000;0.000;2023-07-09T05:25:38;100023.63;;;22.79;45.88
76858;BME280;65830;0.000;0.000;2023-07-09T05:28:04;100021.31;;;22.83;45.48
76858;BME280;65830;0.000;0.000;2023-07-09T05:30:29;100032.34;;;22.88;45.26
76858;BME280;65830;0.000;0.000;2023-07-09T05:32:55;100027.75;;;22.89;45.03
76858;BME280;65830;0.000;0.000;2023-07-09T05:35:26;100027.75;;;22.89;44.58
76858;BME280;65830;0.000;0.000;2023-07-09T05:37:52;100029.63;;;22.88;44.52
76858;BME280;65830;0.000;0.000;2023-07-09T05:40:17;100037.97;;;22.93;44.27
76858;BME280;65830;0.000;0.000;2023-07-09T05:42:43;100030.25;;;22.90;44.47
76858;BME280;65830;0.000;0.000;2023-07-09T05:45:09;100032.97;;;22.90;44.58
76858;BME280;65830;0.000;0.000;2023-07-09T05:47:35;100030.66;;;22.94;44.45
76858;BME280;65830;0.000;0.000;2023-07-09T05:50:00;100014.59;;;22.99;44.59
76858;BME280;65830;0.000;0.000;2023-07-09T05:52:27;100021.91;;;23.12;44.38
76858;BME280;65830;0.000;0.000;2023-07-09T05:54:54;100019.63;;;23.15;44.31
76858;BME280;65830;0.000;0.000;2023-07-09T05:57:20;100014.41;;;23.14;44.20
76858;BME280;65830;0.000;0.000;2023-07-09T05:59:47;100015.84;;;23.23;44.20
76858;BME280;65830;0.000;0.000;2023-07-09T06:02:13;100008.09;;;23.33;44.12
76858;BME280;65830;0.000;0.000;2023-07-09T06:04:38;100007.41;;;23.45;44.08
76858;BME280;65830;0.000;0.000;2023-07-09T06:07:04;100003.88;;;23.51;43.43
76858;BME280;65830;0.000;0.000;2023-07-09T06:09:30;100003.38;;;23.60;43.34
76858;BME280;65830;0.000;0.000;2023-07-09T06:11:56;100003.63;;;23.59;42.29
76858;BME280;65830;0.000;0.000;2023-07-09T06:14:21;99997.59;;;23.50;42.79
76858;BME280;65830;0.000;0.000;2023-07-09T06:16:47;99999.69;;;23.55;43.14
76858;BME280;65830;0.000;0.000;2023-07-09T06:19:12;99999.44;;;23.63;43.24
76858;BME280;65830;0.000;0.000;2023-07-09T06:21:38;99988.41;;;23.65;42.54
76858;BME280;65830;0.000;0.000;2023-07-09T06:24:05;99988.34;;;23.71;42.71
76858;BME280;65830;0.000;0.000;2023-07-09T06:26:30;99997.47;;;23.84;42.82
76858;BME280;65830;0.000;0.000;2023-07-09T06:28:56;99993.63;;;23.98;42.19
76858;BME280;65830;0.000;0.000;2023-07-09T06:31:21;99987.78;;;24.01;42.39
76858;BME280;65830;0.000;0.000;2023-07-09T06:33:47;100004.47;;;23.98;42.32
76858;BME280;65830;0.000;0.000;2023-07-09T06:36:13;99994.34;;;24.12;42.24
76858;BME280;65830;0.000;0.000;2023-07-09T06:38:39;99992.63;;;24.24;42.20
76858;BME280;65830;0.000;0.000;2023-07-09T06:41:04;99996.91;;;24.32;41.87
76858;BME280;65830;0.000;0.000;2023-07-09T06:43:30;99992.78;;;24.29;42.09
76858;BME280;65830;0.000;0.000;2023-07-09T06:45:57;99988.34;;;24.35;41.59
76858;BME280;65830;0.000;0.000;2023-07-09T06:48:23;99991.84;;;24.42;41.83
76858;BME280;65830;0.000;0.000;2023-07-09T06:50:49;99989.88;;;24.49;41.48
76858;BME280;65830;0.000;0.000;2023-07-09T06:53:15;99992.00;;;24.54;41.76
76858;BME280;65830;0.000;0.000;2023-07-09T06:55:41;99991.44;;;24.64;41.36
76858;BME280;65830;0.000;0.000;2023-07-09T06:58:07;99989.81;;;24.63;41.17
76858;BME280;65830;0.000;0.000;2023-07-09T07:00:35;99983.47;;;24.69;41.29
76858;BME280;65830;0.000;0.000;2023-07-09T07:03:01;99988.63;;;24.77;41.37
76858;BME280;65830;0.000;0.000;2023-07-09T07:05:27;99977.31;;;24.80;40.76
76858;BME280;65830;0.000;0.000;2023-07-09T07:07:52;99988.31;;;24.85;40.80
76858;BME280;65830;0.000;0.000;2023-07-09T07:10:18;99983.44;;;24.94;41.09
76858;BME280;65830;0.000;0.000;2023-07-09T07:12:46;99986.59;;;25.09;40.59
76858;BME280;65830;0.000;0.000;2023-07-09T07:15:13;99980.50;;;25.14;40.15
76858;BME280;65830;0.000;0.000;2023-07-09T07:17:39;99982.25;;;25.08;39.85
76858;BME280;65830;0.000;0.000;2023-07-09T07:20:05;99984.88;;;25.15;40.54
76858;BME280;65830;0.000;0.000;2023-07-09T07:22:30;99987.09;;;25.25;39.70
76858;BME280;65830;0.000;0.000;2023-07-09T07:24:56;99975.81;;;25.21;39.39
76858;BME280;65830;0.000;0.000;2023-07-09T07:27:21;99981.59;;;25.31;39.89
76858;BME280;65830;0.000;0.000;2023-07-09T07:29:47;99979.06;;;25.48;39.87
76858;BME280;65830;0.000;0.000;2023-07-09T07:32:12;99982.16;;;25.52;39.65
76858;BME280;65830;0.000;0.000;2023-07-09T07:34:38;99976.56;;;25.47;38.92
76858;BME280;65830;0.000;0.000;2023-07-09T07:37:03;99976.03;;;25.56;38.76
76858;BME280;65830;0.000;0.000;2023-07-09T07:39:29;99969.91;;;25.61;38.51
76858;BME280;65830;0.000;0.000;2023-07-09T07:41:54;99963.44;;;25.74;38.93
76858;BME280;65830;0.000;0.000;2023-07-09T07:44:21;99956.72;;;25.76;38.44
76858;BME280;65830;0.000;0.000;2023-07-09T07:46:46;99963.19;;;25.94;38.29
76858;BME280;65830;0.000;0.000;2023-07-09T07:49:12;99962.84;;;26.02;37.61
76858;BME280;65830;0.000;0.000;2023-07-09T07:51:37;99957.75;;;25.94;36.98
76858;BME280;65830;0.000;0.000;2023-07-09T07:54:03;99961.06;;;25.96;37.51
76858;BME280;65830;0.000;0.000;2023-07-09T07:56:29;99960.50;;;26.06;37.23
76858;BME280;65830;0.000;0.000;2023-07-09T07:58:55;99960.38;;;26.01;36.87
76858;BME280;65830;0.000;0.000;2023-07-09T08:01:20;99955.88;;;26.06;36.77
76858;BME280;65830;0.000;0.000;2023-07-09T08:03:46;99968.44;;;26.07;36.14
76858;BME280;65830;0.000;0.000;2023-07-09T08:06:12;99952.25;;;26.12;36.53
76858;BME280;65830;0.000;0.000;2023-07-09T08:08:37;99956.41;;;26.27;36.86
76858;BME280;65830;0.000;0.000;2023-07-09T08:11:04;99949.28;;;26.38;36.43
76858;BME280;65830;0.000;0.000;2023-07-09T08:13:33;99961.25;;;26.48;36.28
76858;BME280;65830;0.000;0.000;2023-07-09T08:15:59;99947.75;;;26.53;35.95
76858;BME280;65830;0.000;0.000;2023-07-09T08:18:25;99940.91;;;26.51;36.26
76858;BME280;65830;0.000;0.000;2023-07-09T08:20:50;99939.84;;;26.64;35.82
76858;BME280;65830;0.000;0.000;2023-07-09T08:23:16;99944.00;;;26.66;35.75
76858;BME280;65830;0.000;0.000;2023-07-09T08:25:41;99941.63;;;26.70;35.01
76858;BME280;65830;0.000;0.000;2023-07-09T08:28:07;99930.50;;;26.71;35.17
76858;BME280;65830;0.000;0.000;2023-07-09T08:30:32;99933.81;;;26.73;34.37
76858;BME280;65830;0.000;0.000;2023-07-09T08:32:58;99933.69;;;26.80;34.72
76858;BME280;65830;0.000;0.000;2023-07-09T08:35:24;99925.41;;;26.75;34.93
76858;BME280;65830;0.000;0.000;2023-07-09T08:37:49;99928.84;;;26.82;34.54
76858;BME280;65830;0.000;0.000;2023-07-09T08:40:16;99919.00;;;26.93;34.36
76858;BME280;65830;0.000;0.000;2023-07-09T08:42:43;99920.88;;;27.04;34.15
76858;BME280;65830;0.000;0.000;2023-07-09T08:47:49;99913.38;;;27.11;33.39
76858;BME280;65830;0.000;0.000;2023-07-09T08:50:18;99924.97;;;27.19;32.70
76858;BME280;65830;0.000;0.000;2023-07-09T08:52:45;99916.34;;;27.10;32.93
76858;BME280;65830;0.000;0.000;2023-07-09T08:55:16;99914.22;;;27.12;33.26
76858;BME280;65830;0.000;0.000;2023-07-09T08:57:45;99909.06;;;27.27;33.35
76858;BME280;65830;0.000;0.000;2023-07-09T09:00:15;99904.72;;;27.26;32.72
76858;BME280;65830;0.000;0.000;2023-07-09T09:02:44;99900.38;;;27.42;33.07
76858;BME280;65830;0.000;0.000;2023-07-09T09:05:12;99917.31;;;27.44;32.36
76858;BME280;65830;0.000;0.000;2023-07-09T09:07:40;99912.50;;;27.34;31.85
76858;BME280;65830;0.000;0.000;2023-07-09T09:10:08;99911.44;;;27.36;32.00
76858;BME280;65830;0.000;0.000;2023-07-09T09:12:41;99907.53;;;27.31;32.57
76858;BME280;65830;0.000;0.000;2023-07-09T09:15:16;99911.50;;;27.41;32.73
76858;BME280;65830;0.000;0.000;2023-07-09T09:17:42;99915.34;;;27.57;32.83
76858;BME280;65830;0.000;0.000;2023-07-09T09:20:09;99904.78;;;27.60;32.08
76858;BME280;65830;0.000;0.000;2023-07-09T09:25:19;99910.88;;;27.50;32.51
76858;BME280;65830;0.000;0.000;2023-07-09T09:27:46;99898.34;;;27.49;31.79
76858;BME280;65830;0.000;0.000;2023-07-09T09:30:16;99895.22;;;27.58;32.37
76858;BME280;65830;0.000;0.000;2023-07-09T09:32:43;99903.97;;;27.77;32.22
76858;BME280;65830;0.000;0.000;2023-07-09T09:35:13;99910.25;;;27.89;31.42
76858;BME280;65830;0.000;0.000;2023-07-09T09:37:39;99900.03;;;27.84;31.42
76858;BME280;65830;0.000;0.000;2023-07-09T09:40:04;99892.56;;;27.91;31.85
76858;BME280;65830;0.000;0.000;2023-07-09T09:42:30;99896.19;;;27.97;31.79
76858;BME280;65830;0.000;0.000;2023-07-09T09:44:57;99898.91;;;27.97;30.63
76858;BME280;65830;0.000;0.000;2023-07-09T09:47:25;99892.63;;;27.97;30.41
76858;BME280;65830;0.000;0.000;2023-07-09T09:49:52;99894.69;;;28.06;30.81
76858;BME280;65830;0.000;0.000;2023-07-09T09:52:18;99904.78;;;28.06;30.09
76858;BME280;65830;0.000;0.000;2023-07-09T09:54:46;99892.81;;;28.07;28.73
76858;BME280;65830;0.000;0.000;2023-07-09T09:57:18;99892.03;;;28.11;28.92
76858;BME280;65830;0.000;0.000;2023-07-09T09:59:45;99885.69;;;28.06;29.18
76858;BME280;65830;0.000;0.000;2023-07-09T10:02:18;99883.97;;;28.17;28.44
76858;BME280;65830;0.000;0.000;2023-07-09T10:04:44;99881.53;;;28.20;28.81
76858;BME280;65830;0.000;0.000;2023-07-09T10:07:10;99878.56;;;28.22;29.13
76858;BME280;65830;0.000;0.000;2023-07-09T10:17:03;99878.56;;;28.22;29.71
76858;BME280;65830;0.000;0.000;2023-07-09T10:19:33;99870.88;;;28.19;30.02
76858;BME280;65830;0.000;0.000;2023-07-09T10:22:02;99871.94;;;28.35;30.32
76858;BME280;65830;0.000;0.000;2023-07-09T10:29:28;99868.25;;;28.63;29.13
76858;BME280;65830;0.000;0.000;2023-07-09T10:32:01;99869.88;;;28.64;28.98
76858;BME280;65830;0.000;0.000;2023-07-09T10:39:47;99862.47;;;28.59;28.70
76858;BME280;65830;0.000;0.000;2023-07-09T10:42:35;99860.84;;;28.80;29.58
76858;BME280;65830;0.000;0.000;2023-07-09T10:45:03;99865.41;;;28.75;28.37
76858;BME280;65830;0.000;0.000;2023-07-09T10:47:35;99850.34;;;28.72;28.80
76858;BME280;65830;0.000;0.000;2023-07-09T10:50:03;99857.25;;;28.80;29.69
76858;BME280;65830;0.000;0.000;2023-07-09T10:52:34;99860.25;;;28.78;28.56
76858;BME280;65830;0.000;0.000;2023-07-09T10:55:07;99860.44;;;28.71;30.18
76858;BME280;65830;0.000;0.000;2023-07-09T11:00:23;99858.66;;;28.82;28.95
76858;BME280;65830;0.000;0.000;2023-07-09T11:02:53;99861.53;;;28.92;30.09
76858;BME280;65830;0.000;0.000;2023-07-09T11:05:22;99861.88;;;29.01;28.68
76858;BME280;65830;0.000;0.000;2023-07-09T11:07:48;99850.06;;;28.96;29.08
76858;BME280;65830;0.000;0.000;2023-07-09T11:10:19;99847.63;;;28.94;31.95
76858;BME280;65830;0.000;0.000;2023-07-09T11:12:51;99844.59;;;28.96;29.22
76858;BME280;65830;0.000;0.000;2023-07-09T11:15:22;99845.59;;;29.34;28.09
76858;BME280;65830;0.000;0.000;2023-07-09T11:17:51;99850.31;;;29.43;29.60
76858;BME280;65830;0.000;0.000;2023-07-09T11:20:28;99842.06;;;29.65;26.62
76858;BME280;65830;0.000;0.000;2023-07-09T11:26:08;99836.78;;;29.86;28.30
76858;BME280;65830;0.000;0.000;2023-07-09T11:28:36;99837.66;;;29.97;26.71
76858;BME280;65830;0.000;0.000;2023-07-09T11:31:08;99839.09;;;30.04;27.97
76858;BME280;65830;0.000;0.000;2023-07-09T11:33:46;99831.13;;;30.03;26.33
76858;BME280;65830;0.000;0.000;2023-07-09T11:36:13;99822.09;;;30.02;26.06
76858;BME280;65830;0.000;0.000;2023-07-09T11:38:41;99838.41;;;29.87;25.94
76858;BME280;65830;0.000;0.000;2023-07-09T11:43:51;99824.78;;;29.92;26.56
76858;BME280;65830;0.000;0.000;2023-07-09T11:46:24;99830.00;;;29.99;26.51
76858;BME280;65830;0.000;0.000;2023-07-09T11:48:52;99833.19;;;30.23;25.76
76858;BME280;65830;0.000;0.000;2023-07-09T11:51:31;99826.06;;;30.22;26.43
76858;BME280;65830;0.000;0.000;2023-07-09T11:53:59;99816.34;;;30.41;26.30
76858;BME280;65830;0.000;0.000;2023-07-09T11:56:25;99812.66;;;30.73;26.44
76858;BME280;65830;0.000;0.000;2023-07-09T11:58:51;99812.38;;;30.80;26.38
76858;BME280;65830;0.000;0.000;2023-07-09T12:01:18;99814.66;;;30.93;26.26
76858;BME280;65830;0.000;0.000;2023-07-09T12:03:46;99808.91;;;30.95;26.29
76858;BME280;65830;0.000;0.000;2023-07-09T12:06:16;99794.13;;;31.06;25.73
76858;BME280;65830;0.000;0.000;2023-07-09T12:08:44;99796.34;;;31.35;25.04
76858;BME280;65830;0.000;0.000;2023-07-09T12:11:31;99795.81;;;31.38;24.54
76858;BME280;65830;0.000;0.000;2023-07-09T12:14:08;99791.47;;;31.67;25.01
76858;BME280;65830;0.000;0.000;2023-07-09T12:16:35;99795.25;;;32.08;24.15
76858;BME280;65830;0.000;0.000;2023-07-09T12:19:01;99796.00;;;32.34;24.25
76858;BME280;65830;0.000;0.000;2023-07-09T12:21:27;99790.81;;;32.17;24.19
76858;BME280;65830;0.000;0.000;2023-07-09T12:23:54;99784.94;;;32.54;23.61
76858;BME280;65830;0.000;0.000;2023-07-09T12:26:20;99770.59;;;33.17;23.64
76858;BME280;65830;0.000;0.000;2023-07-09T12:28:52;99784.94;;;33.49;23.41
76858;BME280;65830;0.000;0.000;2023-07-09T12:31:20;99784.13;;;33.03;24.31
76858;BME280;65830;0.000;0.000;2023-07-09T12:33:47;99770.44;;;33.38;24.11
76858;BME280;65830;0.000;0.000;2023-07-09T12:36:14;99777.31;;;33.70;23.53
76858;BME280;65830;0.000;0.000;2023-07-09T12:38:42;99763.91;;;34.40;22.43
76858;BME280;65830;0.000;0.000;2023-07-09T12:41:18;99759.13;;;34.70;22.29
76858;BME280;65830;0.000;0.000;2023-07-09T12:43:44;99766.06;;;34.87;22.56
76858;BME280;65830;0.000;0.000;2023-07-09T12:46:10;99762.50;;;35.05;23.02
76858;BME280;65830;0.000;0.000;2023-07-09T12:48:35;99761.38;;;35.25;22.02
76858;BME280;65830;0.000;0.000;2023-07-09T12:51:01;99759.44;;;35.07;22.44
76858;BME280;65830;0.000;0.000;2023-07-09T12:53:31;99755.94;;;35.53;23.15
76858;BME280;65830;0.000;0.000;2023-07-09T12:56:00;99738.31;;;35.82;21.27
76858;BME280;65830;0.000;0.000;2023-07-09T12:58:30;99743.34;;;36.07;21.11
76858;BME280;65830;0.000;0.000;2023-07-09T13:00:57;99745.81;;;36.23;21.10
76858;BME280;65830;0.000;0.000;2023-07-09T13:03:29;99739.38;;;36.27;20.84
76858;BME280;65830;0.000;0.000;2023-07-09T13:06:03;99730.25;;;35.71;21.69
76858;BME280;65830;0.000;0.000;2023-07-09T13:08:30;99733.50;;;35.08;22.41
76858;BME280;65830;0.000;0.000;2023-07-09T13:10:56;99735.28;;;34.98;23.02
76858;BME280;65830;0.000;0.000;2023-07-09T13:13:22;99728.59;;;34.86;22.89
76858;BME280;65830;0.000;0.000;2023-07-09T13:15:52;99723.25;;;35.46;22.14
76858;BME280;65830;0.000;0.000;2023-07-09T13:18:25;99731.19;;;35.81;21.59
76858;BME280;65830;0.000;0.000;2023-07-09T13:20:51;99731.41;;;35.98;21.48
76858;BME280;65830;0.000;0.000;2023-07-09T13:25:43;99728.63;;;35.84;21.31
76858;BME280;65830;0.000;0.000;2023-07-09T13:28:19;99725.97;;;35.93;21.63
76858;BME280;65830;0.000;0.000;2023-07-09T13:30:46;99717.53;;;36.67;20.64
76858;BME280;65830;0.000;0.000;2023-07-09T13:33:12;99739.13;;;37.02;20.27
76858;BME280;65830;0.000;0.000;2023-07-09T13:35:37;99723.81;;;36.31;21.10
76858;BME280;65830;0.000;0.000;2023-07-09T13:38:08;99728.63;;;36.12;21.31
76858;BME280;65830;0.000;0.000;2023-07-09T13:40:36;99732.91;;;35.76;21.57
76858;BME280;65830;0.000;0.000;2023-07-09T13:43:02;99711.94;;;36.31;22.23
76858;BME280;65830;0.000;0.000;2023-07-09T13:45:28;99711.31;;;36.84;22.28
76858;BME280;65830;0.000;0.000;2023-07-09T13:47:54;99711.31;;;36.84;22.28